Time;durP1;ratioP1;P1;durP2;ratioP2;P2;SDS_P1;SDS_P2;PMS_P1;PMS_P2;Temp;Humidity;BMP_temperature;BMP_pressure;BME280_temperature;BME280_humidity;BME280_pressure;Samples;Min_cycle;Max_cycle;Signal;HPM_P1;HPM_P2
2022/09/20 00:01:06;;;;;;;;;;;10.60;88.10;;;;;;5065460;28;19996;-83
2022/09/20 00:03:32;;;;;;;;;;;10.70;88.30;;;;;;5045057;28;19987;-84
2022/09/20 00:05:59;;;;;;;;;;;10.60;87.70;;;;;;5035581;28;19913;-84
2022/09/20 00:08:25;;;;;;;;;;;10.60;88.00;;;;;;5037742;28;20008;-83
2022/09/20 00:10:50;;;;;;;;;;;10.50;88.10;;;;;;5055262;28;19996;-84
2022/09/20 00:13:15;;;;;;;;;;;10.60;88.20;;;;;;5041028;28;19958;-83
2022/09/20 00:15:42;;;;;;;;;;;10.60;88.30;;;;;;5066449;28;19920;-83
2022/09/20 00:18:07;;;;;;;;;;;10.60;87.90;;;;;;5038132;28;20083;-83
2022/09/20 00:20:33;;;;;;;;;;;10.50;88.00;;;;;;5034799;28;20011;-84
2022/09/20 00:22:58;;;;;;;;;;;10.60;88.30;;;;;;5061161;28;19913;-83
2022/09/20 00:25:24;;;;;;;;;;;10.60;88.60;;;;;;5048864;28;19920;-83
2022/09/20 00:27:49;;;;;;;;;;;10.50;88.40;;;;;;5061242;28;20003;-84
2022/09/20 00:30:15;;;;;;;;;;;10.50;88.40;;;;;;4692484;22;19932;-83
2022/09/20 00:32:43;;;;;;;;;;;10.50;88.30;;;;;;5074047;28;19942;-84
2022/09/20 00:35:12;;;;;;;;;;;10.60;88.40;;;;;;5066883;28;19916;-84
2022/09/20 00:37:39;;;;;;;;;;;10.60;88.00;;;;;;5058240;28;19920;-84
2022/09/20 00:40:06;;;;;;;;;;;10.60;88.50;;;;;;5054509;28;19919;-84
2022/09/20 00:42:32;;;;;;;;;;;10.50;88.60;;;;;;5075594;28;19947;-84
2022/09/20 00:45:00;;;;;;;;;;;10.60;88.50;;;;;;5075426;28;19947;-85
2022/09/20 00:47:40;;;;;;;;;;;10.60;88.70;;;;;;5067538;28;19919;-84
2022/09/20 00:50:13;;;;;;;;;;;10.60;88.00;;;;;;5070421;28;19920;-84
2022/09/20 00:52:38;;;;;;;;;;;10.50;88.30;;;;;;5060747;28;20198;-84
2022/09/20 00:55:06;;;;;;;;;;;10.60;88.10;;;;;;5081368;28;19968;-82
2022/09/20 00:57:34;;;;;;;;;;;10.50;88.30;;;;;;5073704;28;19976;-82
2022/09/20 01:00:00;;;;;;;;;;;10.50;88.40;;;;;;5081169;28;19942;-82
2022/09/20 01:02:27;;;;;;;;;;;10.60;88.40;;;;;;5079306;28;19916;-82
2022/09/20 01:04:54;;;;;;;;;;;10.50;88.00;;;;;;5069660;28;19920;-82
2022/09/20 01:07:21;;;;;;;;;;;10.50;88.30;;;;;;5085255;28;19912;-82
2022/09/20 01:09:47;;;;;;;;;;;10.40;88.10;;;;;;5066188;28;19927;-82
2022/09/20 01:12:14;;;;;;;;;;;10.40;88.20;;;;;;5082452;28;20406;-82
2022/09/20 01:14:41;;;;;;;;;;;10.40;88.20;;;;;;5078355;28;19921;-82
2022/09/20 01:17:07;;;;;;;;;;;10.30;88.20;;;;;;5061128;28;19924;-81
2022/09/20 01:19:39;;;;;;;;;;;10.30;88.70;;;;;;5079418;28;20402;-82
2022/09/20 01:22:09;;;;;;;;;;;10.30;88.60;;;;;;5064904;28;20582;-82
2022/09/20 01:24:41;;;;;;;;;;;10.20;88.90;;;;;;5081215;28;19952;-81
2022/09/20 01:27:10;;;;;;;;;;;10.40;88.80;;;;;;5085379;28;19920;-81
2022/09/20 01:29:44;;;;;;;;;;;10.30;88.10;;;;;;5082415;28;19931;-81
2022/09/20 01:32:12;;;;;;;;;;;10.30;88.60;;;;;;5065717;28;19912;-81
2022/09/20 01:34:44;;;;;;;;;;;10.20;88.70;;;;;;5079904;28;19916;-82
2022/09/20 01:37:26;;;;;;;;;;;10.10;89.00;;;;;;5079087;28;20390;-82
2022/09/20 01:40:05;;;;;;;;;;;10.30;88.70;;;;;;5080519;28;19913;-82
2022/09/20 01:42:32;;;;;;;;;;;10.30;88.50;;;;;;5067513;28;20306;-81
2022/09/20 01:45:09;;;;;;;;;;;10.30;88.80;;;;;;5084340;28;19912;-82
2022/09/20 01:47:34;;;;;;;;;;;10.30;88.50;;;;;;5059296;28;19999;-81
2022/09/20 01:50:03;;;;;;;;;;;10.20;88.70;;;;;;5065499;28;20010;-84
2022/09/20 01:52:43;;;;;;;;;;;10.20;88.90;;;;;;5081715;28;19912;-84
2022/09/20 01:55:32;;;;;;;;;;;10.30;88.60;;;;;;5069867;28;19916;-83
2022/09/20 01:58:06;;;;;;;;;;;10.20;88.40;;;;;;5077657;28;19921;-84
2022/09/20 02:00:51;;;;;;;;;;;10.20;88.40;;;;;;5078767;28;19920;-84
2022/09/20 02:03:35;;;;;;;;;;;10.10;88.70;;;;;;5061683;28;19917;-84
2022/09/20 02:06:07;;;;;;;;;;;10.10;89.00;;;;;;5083162;28;20559;-83
2022/09/20 02:08:35;;;;;;;;;;;10.10;89.10;;;;;;5067310;28;19912;-83
2022/09/20 02:11:12;;;;;;;;;;;10.10;89.30;;;;;;5065737;28;19912;-81
2022/09/20 02:13:54;;;;;;;;;;;10.10;89.30;;;;;;5064031;28;19916;-81
2022/09/20 02:16:22;;;;;;;;;;;10.10;89.40;;;;;;5080423;28;20261;-81
2022/09/20 02:19:06;;;;;;;;;;;10.10;89.20;;;;;;5074793;28;19922;-82
2022/09/20 02:21:37;;;;;;;;;;;10.20;89.20;;;;;;5089316;28;19922;-83
2022/09/20 02:24:21;;;;;;;;;;;10.20;89.20;;;;;;5070087;28;19912;-83
2022/09/20 02:27:02;;;;;;;;;;;10.30;89.40;;;;;;5068996;28;20058;-83
2022/09/20 02:29:48;;;;;;;;;;;10.30;89.10;;;;;;5068461;28;19943;-82
2022/09/20 02:32:23;;;;;;;;;;;10.40;88.50;;;;;;5061900;28;19916;-83
2022/09/20 02:35:07;;;;;;;;;;;10.40;88.50;;;;;;5059947;28;19912;-82
2022/09/20 02:37:52;;;;;;;;;;;10.40;88.40;;;;;;5062338;28;19919;-83
2022/09/20 02:40:37;;;;;;;;;;;10.30;88.60;;;;;;5064654;28;19995;-82
2022/09/20 02:43:21;;;;;;;;;;;10.30;88.70;;;;;;5063786;28;19912;-83
2022/09/20 02:45:51;;;;;;;;;;;10.20;88.90;;;;;;5067240;28;20446;-82
2022/09/20 02:48:20;;;;;;;;;;;10.20;89.00;;;;;;5080051;28;19923;-82
2022/09/20 02:51:01;;;;;;;;;;;10.20;89.20;;;;;;5062782;28;19916;-82
2022/09/20 02:53:39;;;;;;;;;;;10.10;89.40;;;;;;5086344;28;19920;-82
2022/09/20 02:56:21;;;;;;;;;;;10.30;89.20;;;;;;5073764;28;19912;-82
2022/09/20 02:59:04;;;;;;;;;;;10.20;89.10;;;;;;5077105;28;20278;-83
2022/09/20 03:01:33;;;;;;;;;;;10.10;89.30;;;;;;5066380;28;19916;-83
2022/09/20 03:04:06;;;;;;;;;;;10.30;89.10;;;;;;5077453;28;19912;-82
2022/09/20 03:06:34;;;;;;;;;;;10.20;89.10;;;;;;5072800;28;19924;-82
2022/09/20 03:09:24;;;;;;;;;;;10.10;89.30;;;;;;5073506;28;20396;-82
2022/09/20 03:11:59;;;;;;;;;;;10.20;89.20;;;;;;5080251;28;19963;-83
2022/09/20 03:14:27;;;;;;;;;;;10.20;89.00;;;;;;5079974;28;19912;-83
2022/09/20 03:17:17;;;;;;;;;;;10.20;88.70;;;;;;5077434;28;19919;-83
2022/09/20 03:19:50;;;;;;;;;;;10.20;89.00;;;;;;5074704;28;19912;-82
2022/09/20 03:22:25;;;;;;;;;;;10.10;89.40;;;;;;5080449;28;19913;-83
2022/09/20 03:24:54;;;;;;;;;;;10.00;89.50;;;;;;5064817;28;19977;-82
2022/09/20 03:27:27;;;;;;;;;;;10.10;89.60;;;;;;5061946;28;19957;-82
2022/09/20 03:30:14;;;;;;;;;;;10.00;89.70;;;;;;5079977;28;20362;-83
2022/09/20 03:32:59;;;;;;;;;;;10.00;89.80;;;;;;5069444;28;19919;-82
2022/09/20 03:35:33;;;;;;;;;;;10.00;89.80;;;;;;5066123;28;19935;-82
2022/09/20 03:37:59;;;;;;;;;;;10.00;89.90;;;;;;5067413;28;20348;-82
2022/09/20 03:40:31;;;;;;;;;;;10.00;89.70;;;;;;5066266;28;19912;-82
2022/09/20 03:43:03;;;;;;;;;;;10.00;89.90;;;;;;5090414;28;19923;-82
2022/09/20 03:45:31;;;;;;;;;;;9.90;90.00;;;;;;5072134;28;19963;-83
2022/09/20 03:48:16;;;;;;;;;;;9.90;90.30;;;;;;5067166;28;19947;-81
2022/09/20 03:50:59;;;;;;;;;;;9.90;90.10;;;;;;5071723;28;20053;-83
2022/09/20 03:53:49;;;;;;;;;;;9.80;90.00;;;;;;5080326;28;20367;-83
2022/09/20 03:56:21;;;;;;;;;;;9.80;90.20;;;;;;5080828;28;19919;-82
2022/09/20 03:59:05;;;;;;;;;;;9.80;90.40;;;;;;5065536;28;19916;-82
2022/09/20 04:01:31;;;;;;;;;;;9.70;90.40;;;;;;5059647;28;19916;-82
2022/09/20 04:04:02;;;;;;;;;;;9.80;90.50;;;;;;5065849;28;20008;-82
2022/09/20 04:06:30;;;;;;;;;;;9.80;90.50;;;;;;5065837;28;20298;-82
2022/09/20 04:09:05;;;;;;;;;;;9.80;90.60;;;;;;5079580;28;19923;-83
2022/09/20 04:11:36;;;;;;;;;;;9.80;90.50;;;;;;5069817;28;19916;-84
2022/09/20 04:14:08;;;;;;;;;;;9.80;90.50;;;;;;5072462;28;19919;-82
2022/09/20 04:16:33;;;;;;;;;;;9.80;90.60;;;;;;5086568;28;19924;-81
2022/09/20 04:19:08;;;;;;;;;;;9.80;90.70;;;;;;5083651;28;19916;-81
2022/09/20 04:21:40;;;;;;;;;;;9.80;90.60;;;;;;5083765;28;20043;-82
2022/09/20 04:24:11;;;;;;;;;;;9.80;90.60;;;;;;5081497;28;19947;-82
2022/09/20 04:26:43;;;;;;;;;;;9.80;90.40;;;;;;5076745;28;20463;-83
2022/09/20 04:29:26;;;;;;;;;;;9.80;90.40;;;;;;5061781;28;19917;-83
2022/09/20 04:31:56;;;;;;;;;;;9.70;90.40;;;;;;5083255;28;20011;-82
2022/09/20 04:36:27;;;;;;;;;;;9.70;90.30;;;;;;5065721;28;20398;-82
2022/09/20 04:37:25;;;;;;;;;;;9.70;90.50;;;;;;5081218;28;19924;-83
2022/09/20 04:40:09;;;;;;;;;;;9.80;90.40;;;;;;5065260;28;20279;-82
2022/09/20 04:42:48;;;;;;;;;;;9.90;90.50;;;;;;5080164;28;19924;-83
2022/09/20 04:45:33;;;;;;;;;;;9.90;90.40;;;;;;5055631;28;20017;-83
2022/09/20 04:48:17;;;;;;;;;;;10.00;90.30;;;;;;5069198;28;19912;-83
2022/09/20 04:50:58;;;;;;;;;;;10.00;90.40;;;;;;5079788;28;20015;-83
2022/09/20 04:53:44;;;;;;;;;;;10.10;90.20;;;;;;5067745;28;19923;-84
2022/09/20 04:56:13;;;;;;;;;;;10.10;90.50;;;;;;5030538;28;19995;-83
2022/09/20 04:58:40;;;;;;;;;;;10.20;90.30;;;;;;5072086;28;19923;-82
2022/09/20 05:01:16;;;;;;;;;;;10.20;90.20;;;;;;5086793;28;19919;-84
2022/09/20 05:04:00;;;;;;;;;;;10.30;90.20;;;;;;5084193;28;19920;-83
2022/09/20 05:06:39;;;;;;;;;;;10.30;90.20;;;;;;5085473;28;19919;-83
2022/09/20 05:09:24;;;;;;;;;;;10.30;90.10;;;;;;5075236;28;19923;-84
2022/09/20 05:11:55;;;;;;;;;;;10.30;90.10;;;;;;5093979;28;19908;-83
2022/09/20 05:14:21;;;;;;;;;;;10.50;89.70;;;;;;5078108;28;19916;-83
2022/09/20 05:17:05;;;;;;;;;;;10.50;89.80;;;;;;5094810;28;19919;-84
2022/09/20 05:19:43;;;;;;;;;;;10.50;89.70;;;;;;5079842;28;19913;-83
2022/09/20 05:22:44;;;;;;;;;;;10.50;89.70;;;;;;5077813;28;19990;-83
2022/09/20 05:25:28;;;;;;;;;;;10.50;89.70;;;;;;5003205;28;19980;-84
2022/09/20 05:27:54;;;;;;;;;;;10.50;89.90;;;;;;5067801;28;20294;-84
2022/09/20 05:30:19;;;;;;;;;;;10.50;89.90;;;;;;5057703;28;19916;-84
2022/09/20 05:32:59;;;;;;;;;;;10.50;89.80;;;;;;5077896;28;20410;-83
2022/09/20 05:35:32;;;;;;;;;;;10.60;90.00;;;;;;5068540;28;19920;-84
2022/09/20 05:38:12;;;;;;;;;;;10.60;89.80;;;;;;5080555;28;19913;-84
2022/09/20 05:40:58;;;;;;;;;;;10.70;89.90;;;;;;5088451;28;19920;-84
2022/09/20 05:43:31;;;;;;;;;;;10.80;89.50;;;;;;5091732;28;19954;-83
2022/09/20 05:46:15;;;;;;;;;;;10.80;89.50;;;;;;5072348;28;19916;-83
2022/09/20 05:49:01;;;;;;;;;;;11.00;88.90;;;;;;5078308;28;20352;-83
2022/09/20 05:51:46;;;;;;;;;;;10.90;88.90;;;;;;5070958;28;20007;-84
2022/09/20 05:54:29;;;;;;;;;;;10.90;89.30;;;;;;5088245;28;19912;-84
2022/09/20 05:57:14;;;;;;;;;;;10.90;89.30;;;;;;5083202;28;20383;-84
2022/09/20 05:59:46;;;;;;;;;;;11.00;89.50;;;;;;5085284;28;19913;-84
2022/09/20 06:02:24;;;;;;;;;;;10.90;89.60;;;;;;5087794;28;20424;-84
2022/09/20 06:05:02;;;;;;;;;;;11.10;89.20;;;;;;5066358;28;19936;-84
2022/09/20 06:07:38;;;;;;;;;;;11.00;89.40;;;;;;5067394;28;19912;-84
2022/09/20 06:10:09;;;;;;;;;;;11.00;89.50;;;;;;5066207;28;19923;-83
2022/09/20 06:12:53;;;;;;;;;;;11.10;89.30;;;;;;5087039;28;19956;-84
2022/09/20 06:15:26;;;;;;;;;;;11.10;89.60;;;;;;5064395;28;20382;-83
2022/09/20 06:17:58;;;;;;;;;;;11.10;89.60;;;;;;5088960;28;19920;-83
2022/09/20 06:20:29;;;;;;;;;;;11.10;89.70;;;;;;5077503;28;20440;-83
2022/09/20 06:22:58;;;;;;;;;;;11.10;89.50;;;;;;5065066;28;19978;-84
2022/09/20 06:25:29;;;;;;;;;;;11.20;89.60;;;;;;5058810;28;20278;-83
2022/09/20 06:28:08;;;;;;;;;;;11.40;89.20;;;;;;5079731;28;19928;-83
2022/09/20 06:30:36;;;;;;;;;;;11.40;88.90;;;;;;5101365;22;20361;-80
2022/09/20 06:33:04;;;;;;;;;;;11.30;89.00;;;;;;5062263;28;19944;-81
2022/09/20 06:35:38;;;;;;;;;;;11.40;89.30;;;;;;5062296;28;20011;-81
2022/09/20 06:41:27;;;;;;;;;;;11.60;88.60;;;;;;5065121;28;19919;-81
2022/09/20 06:43:57;;;;;;;;;;;11.60;88.60;;;;;;5059511;28;19912;-81
2022/09/20 06:46:23;;;;;;;;;;;11.70;88.60;;;;;;5065739;28;19913;-81
2022/09/20 06:48:49;;;;;;;;;;;11.80;88.20;;;;;;5049186;28;19938;-82
2022/09/20 06:51:14;;;;;;;;;;;11.90;87.80;;;;;;5051422;28;19913;-82
2022/09/20 06:53:40;;;;;;;;;;;11.80;87.90;;;;;;5073298;28;20373;-81
2022/09/20 06:56:07;;;;;;;;;;;11.80;88.40;;;;;;5056194;28;20376;-81
2022/09/20 06:58:32;;;;;;;;;;;11.90;88.10;;;;;;5050082;28;19912;-80
2022/09/20 07:00:58;;;;;;;;;;;11.90;87.70;;;;;;5046608;28;19995;-81
2022/09/20 07:03:23;;;;;;;;;;;12.10;87.40;;;;;;5054579;28;19946;-81
2022/09/20 07:05:49;;;;;;;;;;;12.30;86.90;;;;;;5048999;28;19913;-80
2022/09/20 07:08:15;;;;;;;;;;;12.40;86.60;;;;;;5049487;28;19919;-80
2022/09/20 07:10:42;;;;;;;;;;;12.40;85.40;;;;;;5046220;28;19959;-81
2022/09/20 07:13:10;;;;;;;;;;;12.30;86.30;;;;;;5055655;28;19913;-81
2022/09/20 07:15:35;;;;;;;;;;;12.30;86.80;;;;;;5062101;28;19912;-79
2022/09/20 07:18:01;;;;;;;;;;;12.40;86.30;;;;;;5047423;28;19916;-81
2022/09/20 07:20:26;;;;;;;;;;;12.30;86.00;;;;;;5045098;28;19927;-81
2022/09/20 07:22:52;;;;;;;;;;;12.30;86.30;;;;;;5068028;28;19952;-82
2022/09/20 07:25:18;;;;;;;;;;;12.30;85.80;;;;;;5057622;28;19920;-81
2022/09/20 07:27:45;;;;;;;;;;;12.20;86.00;;;;;;5042188;28;19943;-82
2022/09/20 07:30:11;;;;;;;;;;;12.30;85.30;;;;;;5066962;28;19916;-82
2022/09/20 07:32:39;;;;;;;;;;;12.40;85.40;;;;;;5058051;28;21570;-83
2022/09/20 07:35:08;;;;;;;;;;;12.50;85.50;;;;;;5073034;28;19920;-81
2022/09/20 07:37:34;;;;;;;;;;;12.50;85.00;;;;;;5070106;28;19962;-81
2022/09/20 07:39:59;;;;;;;;;;;12.50;84.90;;;;;;5073277;28;19917;-81
2022/09/20 07:42:25;;;;;;;;;;;12.40;85.20;;;;;;5072326;28;19909;-82
2022/09/20 07:44:52;;;;;;;;;;;12.40;85.00;;;;;;5056573;28;19916;-82
2022/09/20 07:47:20;;;;;;;;;;;12.50;85.20;;;;;;5055054;28;20177;-82
2022/09/20 07:49:45;;;;;;;;;;;12.60;84.90;;;;;;5045729;28;20003;-82
2022/09/20 07:52:11;;;;;;;;;;;12.60;85.20;;;;;;5073407;28;19963;-82
2022/09/20 07:54:36;;;;;;;;;;;12.80;84.50;;;;;;5053816;28;19927;-81
2022/09/20 07:57:04;;;;;;;;;;;12.80;84.40;;;;;;5054237;28;19908;-82
2022/09/20 07:59:30;;;;;;;;;;;12.80;84.80;;;;;;5073048;28;19913;-82
2022/09/20 08:01:57;;;;;;;;;;;12.90;84.60;;;;;;5054884;28;20332;-81
2022/09/20 08:04:23;;;;;;;;;;;12.90;84.60;;;;;;5071036;28;19966;-81
2022/09/20 08:06:48;;;;;;;;;;;12.80;85.00;;;;;;5067573;28;19920;-81
2022/09/20 08:09:14;;;;;;;;;;;12.90;84.90;;;;;;5048090;28;19920;-82
2022/09/20 08:11:40;;;;;;;;;;;12.90;85.00;;;;;;5050863;28;19909;-81
2022/09/20 08:14:07;;;;;;;;;;;13.00;84.20;;;;;;5053660;28;19909;-81
2022/09/20 08:16:39;;;;;;;;;;;13.00;84.70;;;;;;5052987;28;19995;-82
2022/09/20 08:19:04;;;;;;;;;;;13.10;85.30;;;;;;5055051;28;20066;-83
2022/09/20 08:21:31;;;;;;;;;;;13.00;85.00;;;;;;5052736;28;20027;-81
2022/09/20 08:23:56;;;;;;;;;;;13.10;85.10;;;;;;5052794;28;19960;-82
2022/09/20 08:26:25;;;;;;;;;;;13.10;84.90;;;;;;5049582;28;19964;-82
2022/09/20 08:28:52;;;;;;;;;;;13.20;84.70;;;;;;5052970;28;19912;-80
2022/09/20 08:31:18;;;;;;;;;;;13.40;84.20;;;;;;5061792;28;19916;-81
2022/09/20 08:33:44;;;;;;;;;;;13.30;84.20;;;;;;5072154;28;19974;-81
2022/09/20 08:36:14;;;;;;;;;;;13.40;83.80;;;;;;5051728;28;20391;-81
2022/09/20 08:38:40;;;;;;;;;;;13.30;83.50;;;;;;5049752;28;19920;-81
2022/09/20 08:41:09;;;;;;;;;;;13.30;83.70;;;;;;5065720;28;20011;-81
2022/09/20 08:43:37;;;;;;;;;;;13.50;83.80;;;;;;5037374;28;19990;-81
2022/09/20 08:46:04;;;;;;;;;;;13.40;84.50;;;;;;5043559;28;20003;-80
2022/09/20 08:48:32;;;;;;;;;;;13.60;84.70;;;;;;5069280;28;19912;-82
2022/09/20 08:50:59;;;;;;;;;;;13.60;84.30;;;;;;5069214;28;19920;-81
2022/09/20 08:53:26;;;;;;;;;;;13.70;84.40;;;;;;5047748;28;20294;-80
2022/09/20 08:55:52;;;;;;;;;;;13.70;84.30;;;;;;5069477;28;19921;-80
2022/09/20 08:58:18;;;;;;;;;;;13.90;83.10;;;;;;5042389;28;19978;-80
2022/09/20 09:00:44;;;;;;;;;;;13.90;82.30;;;;;;5059009;28;19913;-81
2022/09/20 09:03:11;;;;;;;;;;;13.80;82.50;;;;;;5036195;28;19913;-80
2022/09/20 09:05:37;;;;;;;;;;;13.90;82.00;;;;;;5059152;28;19999;-83
2022/09/20 09:08:15;;;;;;;;;;;13.80;82.10;;;;;;5039467;28;20269;-81
2022/09/20 09:10:41;;;;;;;;;;;13.80;82.40;;;;;;5069507;28;20344;-80
2022/09/20 09:13:07;;;;;;;;;;;13.80;82.80;;;;;;5044715;28;19999;-80
2022/09/20 09:15:34;;;;;;;;;;;13.80;81.90;;;;;;5061318;28;20385;-81
2022/09/20 09:18:00;;;;;;;;;;;13.90;81.40;;;;;;5039428;28;19913;-81
2022/09/20 09:20:25;;;;;;;;;;;13.80;82.00;;;;;;5055650;28;19917;-81
2022/09/20 09:22:59;;;;;;;;;;;13.80;80.70;;;;;;5075058;28;19909;-81
2022/09/20 09:25:28;;;;;;;;;;;13.90;81.70;;;;;;5056842;28;19995;-80
2022/09/20 09:27:56;;;;;;;;;;;14.00;82.10;;;;;;5056913;28;20007;-81
2022/09/20 09:30:25;;;;;;;;;;;14.00;82.20;;;;;;5071697;28;19924;-81
2022/09/20 09:32:51;;;;;;;;;;;14.20;81.30;;;;;;5041262;28;19924;-82
2022/09/20 09:35:37;;;;;;;;;;;14.10;81.50;;;;;;5047234;28;19912;-80
2022/09/20 09:38:03;;;;;;;;;;;14.10;79.20;;;;;;5055727;28;19916;-81
2022/09/20 09:40:30;;;;;;;;;;;14.20;79.10;;;;;;5073309;28;19913;-82
2022/09/20 09:42:57;;;;;;;;;;;14.40;78.00;;;;;;5056748;28;19909;-80
2022/09/20 09:45:25;;;;;;;;;;;14.50;74.70;;;;;;5060040;28;19912;-81
2022/09/20 09:47:51;;;;;;;;;;;14.50;75.30;;;;;;5077193;28;19919;-81
2022/09/20 09:50:21;;;;;;;;;;;14.50;76.70;;;;;;5074119;28;19917;-81
2022/09/20 09:53:00;;;;;;;;;;;14.60;75.10;;;;;;5088500;28;19923;-81
2022/09/20 09:55:34;;;;;;;;;;;14.60;75.80;;;;;;5071280;28;19912;-81
2022/09/20 09:58:12;;;;;;;;;;;14.60;74.40;;;;;;5077796;28;20342;-81
2022/09/20 10:00:42;;;;;;;;;;;14.60;74.90;;;;;;5075993;28;19908;-81
2022/09/20 10:03:07;;;;;;;;;;;14.50;75.30;;;;;;5058985;28;20004;-81
2022/09/20 10:05:42;;;;;;;;;;;14.40;75.90;;;;;;5057284;28;19951;-80
2022/09/20 10:08:14;;;;;;;;;;;14.60;76.00;;;;;;5058795;28;19919;-81
2022/09/20 10:10:43;;;;;;;;;;;14.60;76.90;;;;;;5076331;28;19922;-81
2022/09/20 10:13:16;;;;;;;;;;;14.80;73.60;;;;;;5076014;28;19913;-80
2022/09/20 10:15:45;;;;;;;;;;;14.70;73.00;;;;;;5075109;28;19912;-81
2022/09/20 10:18:10;;;;;;;;;;;14.80;72.80;;;;;;5057519;28;19908;-81
2022/09/20 10:20:57;;;;;;;;;;;14.80;73.20;;;;;;5071432;28;19915;-81
2022/09/20 10:23:43;;;;;;;;;;;14.90;73.40;;;;;;5075139;28;19930;-80
2022/09/20 10:26:19;;;;;;;;;;;15.00;71.60;;;;;;5074422;28;19970;-80
2022/09/20 10:28:49;;;;;;;;;;;15.00;70.80;;;;;;5035255;28;20439;-81
2022/09/20 10:31:24;;;;;;;;;;;15.00;72.50;;;;;;5041596;28;20269;-81
2022/09/20 10:33:59;;;;;;;;;;;15.00;70.60;;;;;;5055527;28;20743;-83
2022/09/20 10:36:32;;;;;;;;;;;14.90;70.80;;;;;;5073201;28;20272;-81
2022/09/20 10:39:16;;;;;;;;;;;14.80;73.40;;;;;;5073822;28;19994;-81
2022/09/20 10:45:08;;;;;;;;;;;15.10;71.10;;;;;;5037741;28;19985;-83
2022/09/20 10:47:39;;;;;;;;;;;15.10;70.50;;;;;;5067288;28;19913;-81
2022/09/20 10:50:28;;;;;;;;;;;15.20;68.10;;;;;;5055361;28;19912;-81
2022/09/20 10:52:53;;;;;;;;;;;15.20;68.50;;;;;;5036146;28;19947;-81
2022/09/20 10:55:39;;;;;;;;;;;15.30;66.00;;;;;;5042946;28;19908;-81
2022/09/20 10:58:25;;;;;;;;;;;15.20;67.10;;;;;;5074209;28;19966;-82
2022/09/20 11:01:00;;;;;;;;;;;15.10;68.40;;;;;;5055234;28;19966;-82
2022/09/20 11:03:33;;;;;;;;;;;15.20;68.30;;;;;;5074106;28;19916;-81
2022/09/20 11:06:02;;;;;;;;;;;15.50;67.10;;;;;;5054504;28;20003;-81
2022/09/20 11:08:31;;;;;;;;;;;15.50;68.40;;;;;;5053217;28;20007;-82
2022/09/20 11:11:01;;;;;;;;;;;15.50;66.70;;;;;;5052937;28;19956;-81
2022/09/20 11:13:36;;;;;;;;;;;15.60;66.20;;;;;;5038336;28;19916;-82
2022/09/20 11:16:01;;;;;;;;;;;15.60;70.30;;;;;;5059178;28;19913;-81
2022/09/20 11:18:39;;;;;;;;;;;15.60;68.00;;;;;;5052899;28;19934;-80
2022/09/20 11:21:20;;;;;;;;;;;15.50;67.80;;;;;;5053064;28;19919;-79
2022/09/20 11:23:50;;;;;;;;;;;15.50;68.30;;;;;;5052835;28;19919;-80
2022/09/20 11:26:20;;;;;;;;;;;15.80;66.70;;;;;;5052378;28;19913;-80
2022/09/20 11:28:51;;;;;;;;;;;15.80;67.00;;;;;;5052580;28;19913;-80
2022/09/20 11:31:29;;;;;;;;;;;16.00;67.30;;;;;;5055795;28;19924;-81
2022/09/20 11:33:55;;;;;;;;;;;16.00;66.50;;;;;;5073971;28;19913;-82
2022/09/20 11:36:33;;;;;;;;;;;16.00;65.20;;;;;;5041056;28;19909;-80
2022/09/20 11:39:04;;;;;;;;;;;15.80;66.70;;;;;;5073224;28;19916;-81
2022/09/20 11:41:30;;;;;;;;;;;15.80;67.80;;;;;;5072494;28;20262;-82
2022/09/20 11:44:06;;;;;;;;;;;15.90;67.30;;;;;;5049303;28;20004;-80
2022/09/20 11:46:36;;;;;;;;;;;16.00;66.20;;;;;;5036571;28;19909;-81
2022/09/20 11:49:04;;;;;;;;;;;16.10;66.80;;;;;;5069245;28;19913;-81
2022/09/20 11:51:48;;;;;;;;;;;16.10;67.70;;;;;;5056710;28;19909;-80
2022/09/20 11:54:27;;;;;;;;;;;16.10;64.50;;;;;;5055234;28;19916;-80
2022/09/20 11:56:55;;;;;;;;;;;16.20;65.00;;;;;;5056744;28;19958;-80
2022/09/20 11:59:38;;;;;;;;;;;16.20;66.30;;;;;;5057153;28;19913;-82
2022/09/20 12:02:11;;;;;;;;;;;16.10;62.80;;;;;;5056377;28;19913;-82
2022/09/20 12:04:37;;;;;;;;;;;16.10;63.10;;;;;;5057162;28;20369;-81
2022/09/20 12:07:21;;;;;;;;;;;16.00;64.60;;;;;;5076013;28;19908;-80
2022/09/20 12:09:54;;;;;;;;;;;16.00;66.90;;;;;;5074040;28;19999;-81
2022/09/20 12:12:30;;;;;;;;;;;16.00;65.70;;;;;;5056483;28;19908;-80
2022/09/20 12:14:57;;;;;;;;;;;16.10;66.80;;;;;;5056604;28;19916;-81
2022/09/20 12:17:41;;;;;;;;;;;16.10;66.00;;;;;;5050675;28;20867;-81
2022/09/20 12:20:25;;;;;;;;;;;16.10;65.80;;;;;;5038167;28;19912;-82
2022/09/20 12:22:51;;;;;;;;;;;16.10;65.30;;;;;;5071109;28;19908;-84
2022/09/20 12:25:49;;;;;;;;;;;16.10;63.70;;;;;;5055838;28;20288;-82
2022/09/20 12:28:15;;;;;;;;;;;16.00;62.90;;;;;;5011159;28;20403;-83
2022/09/20 12:30:40;;;;;;;;;;;15.70;63.50;;;;;;5051857;28;19924;-83
2022/09/20 12:33:18;;;;;;;;;;;15.80;65.80;;;;;;5058316;28;20387;-82
2022/09/20 12:35:56;;;;;;;;;;;16.10;63.90;;;;;;5054554;28;19932;-82
2022/09/20 12:38:25;;;;;;;;;;;16.20;62.40;;;;;;5041321;28;19986;-83
2022/09/20 12:40:57;;;;;;;;;;;16.30;62.50;;;;;;5097367;22;19931;-84
2022/09/20 12:43:23;;;;;;;;;;;16.30;62.90;;;;;;5066008;28;19999;-82
2022/09/20 12:45:55;;;;;;;;;;;16.40;59.60;;;;;;5064803;28;19916;-83
2022/09/20 12:48:20;;;;;;;;;;;16.50;60.70;;;;;;5053501;28;19920;-83
2022/09/20 12:54:09;;;;;;;;;;;16.60;58.30;;;;;;4996958;28;19964;-82
2022/09/20 12:56:36;;;;;;;;;;;16.40;59.70;;;;;;4980613;28;19910;-82
2022/09/20 12:59:06;;;;;;;;;;;16.30;59.40;;;;;;5028967;28;19916;-83
2022/09/20 13:01:34;;;;;;;;;;;16.10;62.30;;;;;;5079370;28;19916;-84
2022/09/20 13:04:18;;;;;;;;;;;16.10;62.80;;;;;;5084041;28;19987;-84
2022/09/20 13:06:44;;;;;;;;;;;16.10;60.70;;;;;;5076577;28;19984;-84
2022/09/20 13:09:12;;;;;;;;;;;16.00;61.10;;;;;;5083009;28;19948;-83
2022/09/20 13:11:49;;;;;;;;;;;15.90;62.50;;;;;;5082906;28;19919;-83
2022/09/20 13:14:31;;;;;;;;;;;15.90;62.20;;;;;;5082280;28;19920;-83
2022/09/20 13:17:01;;;;;;;;;;;15.70;62.20;;;;;;5082841;28;20299;-84
2022/09/20 13:19:40;;;;;;;;;;;15.50;62.70;;;;;;5079666;28;19919;-85
2022/09/20 13:22:27;;;;;;;;;;;15.50;63.10;;;;;;5083501;28;20520;-82
2022/09/20 13:24:56;;;;;;;;;;;15.50;63.60;;;;;;5085777;28;19948;-83
2022/09/20 13:27:23;;;;;;;;;;;15.60;63.40;;;;;;5087174;28;19912;-83
2022/09/20 13:29:49;;;;;;;;;;;15.70;62.70;;;;;;5079571;28;19912;-83
2022/09/20 13:32:30;;;;;;;;;;;15.60;63.20;;;;;;5069065;28;19913;-83
2022/09/20 13:35:11;;;;;;;;;;;15.70;61.70;;;;;;5068209;28;19912;-82
2022/09/20 13:37:41;;;;;;;;;;;15.60;63.60;;;;;;5073871;28;19912;-83
2022/09/20 13:40:24;;;;;;;;;;;15.60;63.10;;;;;;5069704;28;19927;-85
2022/09/20 13:42:52;;;;;;;;;;;15.70;62.20;;;;;;5068678;28;19920;-84
2022/09/20 13:45:19;;;;;;;;;;;15.60;62.70;;;;;;5065936;28;19916;-84
2022/09/20 13:47:49;;;;;;;;;;;15.50;63.80;;;;;;5067630;28;19920;-82
2022/09/20 13:50:17;;;;;;;;;;;15.30;64.80;;;;;;5065298;28;19923;-84
2022/09/20 13:52:43;;;;;;;;;;;15.20;64.80;;;;;;5068210;28;20015;-82
2022/09/20 13:55:38;;;;;;;;;;;15.20;66.10;;;;;;5069888;28;19933;-85
2022/09/20 13:58:33;;;;;;;;;;;15.30;66.20;;;;;;5061739;28;19916;-86
2022/09/20 14:01:05;;;;;;;;;;;15.20;67.80;;;;;;5052886;28;20046;-84
2022/09/20 14:03:32;;;;;;;;;;;15.00;69.00;;;;;;5066332;28;19908;-84
2022/09/20 14:06:03;;;;;;;;;;;15.00;69.40;;;;;;5074726;28;19912;-85
2022/09/20 14:08:31;;;;;;;;;;;15.00;71.40;;;;;;5066547;28;20335;-84
2022/09/20 14:11:10;;;;;;;;;;;15.00;71.00;;;;;;5067812;28;19971;-84
2022/09/20 14:13:37;;;;;;;;;;;14.90;71.10;;;;;;5069399;28;19920;-84
2022/09/20 14:16:04;;;;;;;;;;;15.00;71.60;;;;;;5073459;28;20374;-85
2022/09/20 14:18:30;;;;;;;;;;;15.00;71.80;;;;;;5073486;28;19913;-84
2022/09/20 14:20:56;;;;;;;;;;;14.90;70.30;;;;;;5072965;28;19913;-83
2022/09/20 14:23:23;;;;;;;;;;;14.80;71.00;;;;;;5060053;28;19927;-83
2022/09/20 14:26:24;;;;;;;;;;;14.80;72.60;;;;;;5070745;28;19990;-85
2022/09/20 14:28:50;;;;;;;;;;;15.00;70.00;;;;;;5024471;28;19920;-84
2022/09/20 14:31:30;;;;;;;;;;;15.10;69.00;;;;;;5053416;28;20268;-84
2022/09/20 14:34:00;;;;;;;;;;;15.20;69.40;;;;;;5082711;28;19913;-84
2022/09/20 14:36:27;;;;;;;;;;;15.30;69.90;;;;;;5074232;28;20343;-84
2022/09/20 14:38:57;;;;;;;;;;;15.50;68.10;;;;;;5073148;28;20011;-84
2022/09/20 14:41:30;;;;;;;;;;;15.50;69.90;;;;;;5071625;28;19923;-85
2022/09/20 14:43:57;;;;;;;;;;;15.50;70.50;;;;;;5064521;28;19923;-84
2022/09/20 14:46:28;;;;;;;;;;;15.40;68.90;;;;;;5064786;28;19927;-84
2022/09/20 14:48:54;;;;;;;;;;;15.40;67.80;;;;;;5061291;28;19917;-84
2022/09/20 14:51:21;;;;;;;;;;;15.40;65.40;;;;;;5070489;28;19975;-84
2022/09/20 14:53:48;;;;;;;;;;;15.50;66.10;;;;;;5072000;28;19916;-84
2022/09/20 14:56:15;;;;;;;;;;;15.50;64.50;;;;;;5067137;28;19952;-84
2022/09/20 14:58:59;;;;;;;;;;;15.50;64.60;;;;;;5065486;28;19947;-82